Time;durP1;ratioP1;P1;durP2;ratioP2;P2;SDS_P1;SDS_P2;PMS_P1;PMS_P2;Temp;Humidity;BMP_temperature;BMP_pressure;BME280_temperature;BME280_humidity;BME280_pressure;Samples;Min_cycle;Max_cycle;Signal;HPM_P1;HPM_P2
2023/12/27 00:00:13;;;;;;;39.60;38.10;;;;;;;;;;5071490;28;20105;-70
2023/12/27 00:02:39;;;;;;;38.15;36.80;;;;;;;;;;5071698;28;20106;-70
2023/12/27 00:05:06;;;;;;;21.83;20.92;;;;;;;;;;5071566;28;20453;-70
2023/12/27 00:07:32;;;;;;;41.55;39.88;;;;;;;;;;5071426;28;20052;-70
2023/12/27 00:09:59;;;;;;;36.85;35.20;;;;;;;;;;5070499;28;20045;-70
2023/12/27 00:12:27;;;;;;;38.08;36.67;;;;;;;;;;5071301;28;20094;-70
2023/12/27 00:14:53;;;;;;;39.85;38.40;;;;;;;;;;5071127;28;20170;-69
2023/12/27 00:17:20;;;;;;;36.95;35.45;;;;;;;;;;5071500;28;20048;-69
2023/12/27 00:19:46;;;;;;;25.85;24.42;;;;;;;;;;5071361;28;20446;-69
2023/12/27 00:22:14;;;;;;;39.53;37.90;;;;;;;;;;5071569;28;20057;-69
2023/12/27 00:24:40;;;;;;;19.35;18.45;;;;;;;;;;5071614;28;20504;-69
2023/12/27 00:27:07;;;;;;;43.65;41.90;;;;;;;;;;5070178;28;20138;-69
2023/12/27 00:29:35;;;;;;;33.88;32.53;;;;;;;;;;5071213;28;20113;-69
2023/12/27 00:32:01;;;;;;;35.55;34.25;;;;;;;;;;5071048;28;20170;-69
2023/12/27 00:34:28;;;;;;;36.28;34.97;;;;;;;;;;5071237;28;20052;-69
2023/12/27 00:36:54;;;;;;;34.90;32.42;;;;;;;;;;5071252;28;20040;-69
2023/12/27 00:39:23;;;;;;;29.45;28.10;;;;;;;;;;5071431;28;20044;-71
2023/12/27 00:41:50;;;;;;;16.15;15.45;;;;;;;;;;5069953;28;20422;-70
2023/12/27 00:44:16;;;;;;;31.60;30.42;;;;;;;;;;5071205;28;20098;-70
2023/12/27 00:46:44;;;;;;;32.85;31.55;;;;;;;;;;5071218;28;20056;-71
2023/12/27 00:49:11;;;;;;;36.95;35.55;;;;;;;;;;5071105;28;20106;-71
2023/12/27 00:51:37;;;;;;;33.30;32.05;;;;;;;;;;5073196;28;20114;-71
2023/12/27 00:54:04;;;;;;;32.67;31.27;;;;;;;;;;5073300;28;20101;-70
2023/12/27 00:56:30;;;;;;;31.65;30.48;;;;;;;;;;5074816;28;20094;-70
2023/12/27 00:58:57;;;;;;;32.78;31.40;;;;;;;;;;5074742;28;20090;-70
2023/12/27 01:01:23;;;;;;;31.95;30.23;;;;;;;;;;5074438;28;20052;-69
2023/12/27 01:03:51;;;;;;;31.40;30.25;;;;;;;;;;5074649;28;20137;-70
2023/12/27 01:06:17;;;;;;;34.00;32.65;;;;;;;;;;5074948;28;20056;-69
2023/12/27 01:08:44;;;;;;;34.33;32.85;;;;;;;;;;5074617;28;20106;-69
2023/12/27 01:11:10;;;;;;;32.03;30.70;;;;;;;;;;5073760;28;20056;-68
2023/12/27 01:13:37;;;;;;;29.17;28.08;;;;;;;;;;5074446;28;20064;-69
2023/12/27 01:16:04;;;;;;;25.88;24.85;;;;;;;;;;5073919;28;20048;-69
2023/12/27 01:18:30;;;;;;;27.77;26.63;;;;;;;;;;5073879;28;20121;-70
2023/12/27 01:20:58;;;;;;;30.42;29.30;;;;;;;;;;5074539;28;20049;-70
2023/12/27 01:23:24;;;;;;;26.30;25.35;;;;;;;;;;5058780;28;20099;-70
2023/12/27 01:25:51;;;;;;;31.70;30.40;;;;;;;;;;5054585;28;20057;-70
2023/12/27 01:28:17;;;;;;;33.53;32.22;;;;;;;;;;5066293;28;20075;-69
2023/12/27 01:30:44;;;;;;;30.58;29.38;;;;;;;;;;5074349;28;20098;-69
2023/12/27 01:33:10;;;;;;;25.92;24.58;;;;;;;;;;5074276;28;20098;-69
2023/12/27 01:35:37;;;;;;;24.58;23.58;;;;;;;;;;5074694;28;20494;-69
2023/12/27 01:38:05;;;;;;;28.17;26.90;;;;;;;;;;5074157;28;20056;-69
2023/12/27 01:40:31;;;;;;;30.92;29.58;;;;;;;;;;5074342;28;20106;-69
2023/12/27 01:42:58;;;;;;;29.40;28.30;;;;;;;;;;5073058;28;20109;-68
2023/12/27 01:45:24;;;;;;;13.60;13.00;;;;;;;;;;5073668;28;20443;-69
2023/12/27 01:47:51;;;;;;;32.50;31.08;;;;;;;;;;5074212;28;20063;-70
2023/12/27 01:50:18;;;;;;;32.83;31.58;;;;;;;;;;5074018;28;20052;-69
2023/12/27 01:52:44;;;;;;;30.90;29.65;;;;;;;;;;5073843;28;20053;-70
2023/12/27 01:55:12;;;;;;;29.30;28.15;;;;;;;;;;5072792;28;20045;-70
2023/12/27 01:57:39;;;;;;;32.88;31.70;;;;;;;;;;5073929;28;20044;-69
2023/12/27 02:00:06;;;;;;;32.67;31.35;;;;;;;;;;5073670;28;20098;-70
2023/12/27 02:02:33;;;;;;;36.67;35.08;;;;;;;;;;5072691;28;20090;-70
2023/12/27 02:04:59;;;;;;;31.63;30.42;;;;;;;;;;5072968;28;20199;-70
2023/12/27 02:07:26;;;;;;;32.60;31.38;;;;;;;;;;5073635;28;20060;-70
2023/12/27 02:09:52;;;;;;;29.15;27.90;;;;;;;;;;5081479;28;20060;-69
2023/12/27 02:12:27;;;;;;;33.17;30.95;;;;;;;;;;5087854;28;20120;-70
2023/12/27 02:14:53;;;;;;;26.35;25.40;;;;;;;;;;5074859;28;20099;-70
2023/12/27 02:17:20;;;;;;;31.08;29.80;;;;;;;;;;5073619;28;20057;-71
2023/12/27 02:19:47;;;;;;;30.23;29.05;;;;;;;;;;5073392;28;20048;-70
2023/12/27 02:22:17;;;;;;;24.50;23.40;;;;;;;;;;5073485;28;20053;-70
2023/12/27 02:24:45;;;;;;;25.95;24.95;;;;;;;;;;5073321;28;20122;-70
2023/12/27 02:27:12;;;;;;;35.70;34.30;;;;;;;;;;5072218;28;20121;-70
2023/12/27 02:29:38;;;;;;;29.27;28.15;;;;;;;;;;5073038;28;20098;-70
2023/12/27 02:32:05;;;;;;;27.65;26.63;;;;;;;;;;5073264;28;20102;-70
2023/12/27 02:34:31;;;;;;;33.85;32.28;;;;;;;;;;5073177;28;20056;-70
2023/12/27 02:36:58;;;;;;;17.90;17.20;;;;;;;;;;5073128;28;20396;-69
2023/12/27 02:39:24;;;;;;;28.45;27.35;;;;;;;;;;5073044;28;20049;-69
2023/12/27 02:41:52;;;;;;;28.77;27.77;;;;;;;;;;5072800;28;20052;-70
2023/12/27 02:44:18;;;;;;;28.05;26.95;;;;;;;;;;5071632;28;20486;-68
2023/12/27 02:46:45;;;;;;;30.80;29.67;;;;;;;;;;5072524;28;20106;-68
2023/12/27 02:49:11;;;;;;;28.92;27.77;;;;;;;;;;5072678;28;20487;-68
2023/12/27 02:51:38;;;;;;;28.65;27.40;;;;;;;;;;5072791;28;20110;-68
2023/12/27 02:54:04;;;;;;;31.50;30.27;;;;;;;;;;5072546;28;20086;-67
2023/12/27 02:56:31;;;;;;;24.98;24.00;;;;;;;;;;5071282;28;20052;-67
2023/12/27 02:58:59;;;;;;;30.45;29.30;;;;;;;;;;5072752;28;20047;-67
2023/12/27 03:01:25;;;;;;;26.50;25.55;;;;;;;;;;5072367;28;20102;-67
2023/12/27 03:03:52;;;;;;;30.25;29.13;;;;;;;;;;5072261;28;20048;-67
2023/12/27 03:06:18;;;;;;;26.73;25.55;;;;;;;;;;5072564;28;20108;-67
2023/12/27 03:08:45;;;;;;;24.67;23.63;;;;;;;;;;5072008;28;20128;-68
2023/12/27 03:11:11;;;;;;;28.52;27.48;;;;;;;;;;5071032;28;20052;-68
2023/12/27 03:13:38;;;;;;;31.05;29.52;;;;;;;;;;5071881;28;20048;-68
2023/12/27 03:16:06;;;;;;;34.25;32.28;;;;;;;;;;5072261;28;20060;-68
2023/12/27 03:18:33;;;;;;;26.70;25.67;;;;;;;;;;5072013;28;20487;-69
2023/12/27 03:20:59;;;;;;;27.45;26.35;;;;;;;;;;5072214;28;20098;-68
2023/12/27 03:23:26;;;;;;;31.55;30.38;;;;;;;;;;5071774;28;20041;-68
2023/12/27 03:25:52;;;;;;;32.53;31.17;;;;;;;;;;5072212;28;20044;-69
2023/12/27 03:28:19;;;;;;;34.08;32.53;;;;;;;;;;5072078;28;20048;-69
2023/12/27 03:30:45;;;;;;;32.85;31.65;;;;;;;;;;5070773;28;20106;-69
2023/12/27 03:33:13;;;;;;;30.38;29.10;;;;;;;;;;5071969;28;20106;-68
2023/12/27 03:35:39;;;;;;;30.17;29.08;;;;;;;;;;5072066;28;20106;-69
2023/12/27 03:38:06;;;;;;;30.95;29.63;;;;;;;;;;5071823;28;20060;-68
2023/12/27 03:40:32;;;;;;;32.45;31.08;;;;;;;;;;5071776;28;20055;-68
2023/12/27 03:42:59;;;;;;;24.42;23.38;;;;;;;;;;5071756;28;20490;-68
2023/12/27 03:45:25;;;;;;;33.50;32.05;;;;;;;;;;5071801;28;20049;-68
2023/12/27 03:47:52;;;;;;;25.45;24.45;;;;;;;;;;5070752;28;20044;-68
2023/12/27 03:50:20;;;;;;;25.23;24.25;;;;;;;;;;5072019;28;20052;-68
2023/12/27 03:52:46;;;;;;;28.63;27.33;;;;;;;;;;5071810;28;20048;-67
2023/12/27 03:55:13;;;;;;;27.38;26.27;;;;;;;;;;5071389;28;20106;-67
2023/12/27 03:57:39;;;;;;;27.27;26.20;;;;;;;;;;5069758;28;20090;-67
2023/12/27 04:00:07;;;;;;;26.23;25.15;;;;;;;;;;5071757;28;20044;-68
2023/12/27 04:02:33;;;;;;;32.55;31.05;;;;;;;;;;5071729;28;20106;-68
2023/12/27 04:05:00;;;;;;;24.83;23.48;;;;;;;;;;5071502;28;20056;-68
2023/12/27 04:07:27;;;;;;;24.05;23.15;;;;;;;;;;5071575;28;20053;-68
2023/12/27 04:09:54;;;;;;;29.10;28.00;;;;;;;;;;5071384;28;20090;-68
2023/12/27 04:12:20;;;;;;;29.88;28.60;;;;;;;;;;5071596;28;20052;-68
2023/12/27 04:14:48;;;;;;;27.38;26.30;;;;;;;;;;5069898;28;20048;-68
2023/12/27 04:17:14;;;;;;;35.63;34.33;;;;;;;;;;5071616;28;20052;-68
2023/12/27 04:19:41;;;;;;;25.83;24.83;;;;;;;;;;5071411;28;20095;-68
2023/12/27 04:22:07;;;;;;;29.67;28.40;;;;;;;;;;5071375;28;20053;-68
2023/12/27 04:24:35;;;;;;;27.85;26.60;;;;;;;;;;5070962;28;20059;-68
2023/12/27 04:27:02;;;;;;;28.90;27.80;;;;;;;;;;5074319;28;20117;-68
2023/12/27 04:29:28;;;;;;;30.85;29.73;;;;;;;;;;5074026;28;20048;-69
2023/12/27 04:31:54;;;;;;;32.47;31.30;;;;;;;;;;5075306;28;20045;-68
2023/12/27 04:34:21;;;;;;;24.23;23.30;;;;;;;;;;5075534;28;20465;-68
2023/12/27 04:36:47;;;;;;;20.60;19.83;;;;;;;;;;5075376;28;20465;-68
2023/12/27 04:39:14;;;;;;;29.70;28.58;;;;;;;;;;5075370;28;20106;-68
2023/12/27 04:41:42;;;;;;;26.17;25.23;;;;;;;;;;5075448;28;20139;-67
2023/12/27 04:44:08;;;;;;;28.55;27.17;;;;;;;;;;5075252;28;20052;-68
2023/12/27 04:46:36;;;;;;;21.92;20.92;;;;;;;;;;5074024;28;20461;-67
2023/12/27 04:49:03;;;;;;;25.55;24.55;;;;;;;;;;5075017;28;20552;-68
2023/12/27 04:51:30;;;;;;;26.27;25.30;;;;;;;;;;5074863;28;20092;-70
2023/12/27 04:53:56;;;;;;;29.42;28.30;;;;;;;;;;5074980;28;20056;-70
2023/12/27 04:56:23;;;;;;;22.48;21.67;;;;;;;;;;5074896;28;20494;-69
2023/12/27 04:58:51;;;;;;;28.17;27.08;;;;;;;;;;5073657;28;20052;-70
2023/12/27 05:01:17;;;;;;;34.30;32.83;;;;;;;;;;5074884;28;20048;-69
2023/12/27 05:03:44;;;;;;;18.67;17.80;;;;;;;;;;5074871;28;20466;-70
2023/12/27 05:06:11;;;;;;;28.17;27.13;;;;;;;;;;5074748;28;20052;-70
2023/12/27 05:08:39;;;;;;;29.30;28.20;;;;;;;;;;5074621;28;20056;-69
2023/12/27 05:11:10;;;;;;;28.35;27.25;;;;;;;;;;5074837;28;20647;-69
2023/12/27 05:13:37;;;;;;;33.20;31.80;;;;;;;;;;5074317;28;20510;-69
2023/12/27 05:16:08;;;;;;;30.75;29.58;;;;;;;;;;5073282;28;20052;-70
2023/12/27 05:18:35;;;;;;;29.65;28.55;;;;;;;;;;5074266;28;20057;-69
2023/12/27 05:21:01;;;;;;;27.65;26.65;;;;;;;;;;5068921;28;20053;-69
2023/12/27 05:23:28;;;;;;;28.65;27.55;;;;;;;;;;5058965;28;20041;-69
2023/12/27 05:25:54;;;;;;;25.13;24.23;;;;;;;;;;5074306;28;20086;-70
2023/12/27 05:28:21;;;;;;;12.45;11.98;;;;;;;;;;5074520;28;20449;-69
2023/12/27 05:30:47;;;;;;;27.48;26.38;;;;;;;;;;5072542;28;20048;-69
2023/12/27 05:33:15;;;;;;;24.40;23.50;;;;;;;;;;5073139;28;20049;-69
2023/12/27 05:35:41;;;;;;;25.95;24.95;;;;;;;;;;5073817;28;20094;-69
2023/12/27 05:38:08;;;;;;;23.40;22.50;;;;;;;;;;5074151;28;20048;-70
2023/12/27 05:40:34;;;;;;;24.27;23.38;;;;;;;;;;5074132;28;20048;-69
2023/12/27 05:43:01;;;;;;;29.45;28.33;;;;;;;;;;5074151;28;20110;-70
2023/12/27 05:45:26;;;;;;;28.92;27.75;;;;;;;;;;5074001;28;20122;-69
2023/12/27 05:47:53;;;;;;;28.23;27.17;;;;;;;;;;5074007;28;20518;-70
2023/12/27 05:50:21;;;;;;;23.95;23.05;;;;;;;;;;5072724;28;20716;-70
2023/12/27 05:52:47;;;;;;;24.08;22.98;;;;;;;;;;5073636;28;20049;-69
2023/12/27 05:55:14;;;;;;;23.23;22.33;;;;;;;;;;5073857;28;20132;-69
2023/12/27 05:57:40;;;;;;;25.38;24.30;;;;;;;;;;5073742;28;20766;-69
2023/12/27 06:00:08;;;;;;;26.83;25.63;;;;;;;;;;5072440;28;20044;-69
2023/12/27 06:02:34;;;;;;;25.50;24.50;;;;;;;;;;5073523;28;20071;-69
2023/12/27 06:05:01;;;;;;;29.98;28.67;;;;;;;;;;5073743;28;20121;-70
2023/12/27 06:07:31;;;;;;;31.10;29.80;;;;;;;;;;5073412;28;20045;-69
2023/12/27 06:09:58;;;;;;;26.88;25.77;;;;;;;;;;5073475;28;20047;-70
2023/12/27 06:12:24;;;;;;;24.45;23.52;;;;;;;;;;5073315;28;20127;-69
2023/12/27 06:14:51;;;;;;;31.90;30.50;;;;;;;;;;5073275;28;20061;-69
2023/12/27 06:17:17;;;;;;;28.23;27.13;;;;;;;;;;5072142;28;20470;-70
2023/12/27 06:19:44;;;;;;;25.98;24.80;;;;;;;;;;5073389;28;20114;-70
2023/12/27 06:22:10;;;;;;;31.38;30.17;;;;;;;;;;5073330;28;20048;-69
2023/12/27 06:24:38;;;;;;;31.13;29.98;;;;;;;;;;5073399;28;20118;-69
2023/12/27 06:27:06;;;;;;;35.70;34.38;;;;;;;;;;5072723;28;20101;-69
2023/12/27 06:29:33;;;;;;;23.65;22.70;;;;;;;;;;5073125;28;20141;-69
2023/12/27 06:31:59;;;;;;;28.08;26.83;;;;;;;;;;5071597;28;20098;-69
2023/12/27 06:34:25;;;;;;;42.92;40.65;;;;;;;;;;5073064;28;20078;-69
2023/12/27 06:36:52;;;;;;;30.90;29.30;;;;;;;;;;5072746;28;20495;-71
2023/12/27 06:39:18;;;;;;;16.98;16.17;;;;;;;;;;5073257;28;20392;-71
2023/12/27 06:41:46;;;;;;;32.55;31.20;;;;;;;;;;5072991;28;20105;-70
2023/12/27 06:44:13;;;;;;;32.88;31.38;;;;;;;;;;5072764;28;20105;-70
2023/12/27 06:46:39;;;;;;;22.92;21.77;;;;;;;;;;5072741;28;20470;-70
2023/12/27 06:49:06;;;;;;;28.70;27.60;;;;;;;;;;5067504;28;20114;-69
2023/12/27 06:51:32;;;;;;;26.55;25.23;;;;;;;;;;5072478;28;20052;-69
2023/12/27 06:53:59;;;;;;;33.92;32.55;;;;;;;;;;5072024;28;20147;-70
2023/12/27 06:56:25;;;;;;;48.95;47.25;;;;;;;;;;5072451;28;20560;-71
2023/12/27 06:58:53;;;;;;;16.02;14.73;;;;;;;;;;5070950;28;20457;-71
2023/12/27 07:01:19;;;;;;;32.17;30.98;;;;;;;;;;5072203;28;20478;-71
2023/12/27 07:03:46;;;;;;;89.28;85.63;;;;;;;;;;5065686;28;20057;-71
2023/12/27 07:06:12;;;;;;;95.18;91.85;;;;;;;;;;5067450;28;20044;-70
2023/12/27 07:08:39;;;;;;;89.20;86.18;;;;;;;;;;5070570;28;20052;-70
2023/12/27 07:11:05;;;;;;;57.67;55.58;;;;;;;;;;5065107;28;20086;-71
2023/12/27 07:13:32;;;;;;;84.15;81.05;;;;;;;;;;5072210;28;20048;-70
2023/12/27 07:16:00;;;;;;;69.47;66.80;;;;;;;;;;5062539;28;20040;-70
2023/12/27 07:18:26;;;;;;;78.75;75.90;;;;;;;;;;5070066;28;20524;-69
2023/12/27 07:20:53;;;;;;;112.15;108.38;;;;;;;;;;5067636;28;20045;-67
2023/12/27 07:23:19;;;;;;;88.00;84.90;;;;;;;;;;5067933;28;20037;-68
2023/12/27 07:25:46;;;;;;;113.53;109.53;;;;;;;;;;5071866;28;20121;-68
2023/12/27 07:28:12;;;;;;;97.40;93.97;;;;;;;;;;5069873;28;20045;-69
2023/12/27 07:30:38;;;;;;;94.22;90.90;;;;;;;;;;5058440;28;20111;-69
2023/12/27 07:33:06;;;;;;;80.32;77.50;;;;;;;;;;5071620;28;20041;-68
2023/12/27 07:35:33;;;;;;;69.07;66.18;;;;;;;;;;5071676;28;20457;-69
2023/12/27 07:38:00;;;;;;;85.95;83.00;;;;;;;;;;5071283;28;20056;-68
2023/12/27 07:40:27;;;;;;;90.88;87.72;;;;;;;;;;5060078;28;20498;-68
2023/12/27 07:42:53;;;;;;;85.85;82.88;;;;;;;;;;5066894;28;20044;-68
2023/12/27 07:45:22;;;;;;;89.53;86.38;;;;;;;;;;5064336;28;20056;-67
2023/12/27 07:47:48;;;;;;;104.75;100.25;;;;;;;;;;5065231;28;20053;-68
2023/12/27 07:50:16;;;;;;;94.07;90.47;;;;;;;;;;5070359;28;20052;-68
2023/12/27 07:52:43;;;;;;;93.88;90.07;;;;;;;;;;5071313;28;20056;-69
2023/12/27 07:55:10;;;;;;;99.50;95.13;;;;;;;;;;5063429;28;20066;-69
2023/12/27 07:57:37;;;;;;;108.28;103.88;;;;;;;;;;5077856;28;20084;-69
2023/12/27 08:00:07;;;;;;;110.55;106.03;;;;;;;;;;5068501;28;20121;-69
2023/12/27 08:02:33;;;;;;;114.47;110.10;;;;;;;;;;5070709;28;20083;-69
2023/12/27 08:05:00;;;;;;;86.97;83.53;;;;;;;;;;5058602;28;20407;-69
2023/12/27 08:07:28;;;;;;;117.82;113.70;;;;;;;;;;5065419;28;20049;-70
2023/12/27 08:09:54;;;;;;;111.28;107.30;;;;;;;;;;5067426;28;20135;-70
2023/12/27 08:12:21;;;;;;;124.97;120.55;;;;;;;;;;5068390;28;20110;-68
2023/12/27 08:14:47;;;;;;;80.75;77.35;;;;;;;;;;5070942;28;20458;-69
2023/12/27 08:17:14;;;;;;;124.82;120.20;;;;;;;;;;5070948;28;20106;-68
2023/12/27 08:19:40;;;;;;;133.60;129.02;;;;;;;;;;5055852;28;20044;-69
2023/12/27 08:22:06;;;;;;;127.35;123.00;;;;;;;;;;5071101;28;20060;-69
2023/12/27 08:24:34;;;;;;;123.07;118.57;;;;;;;;;;5070630;28;20044;-69
2023/12/27 08:27:01;;;;;;;135.60;130.40;;;;;;;;;;5070184;28;20052;-69
2023/12/27 08:29:27;;;;;;;118.60;114.10;;;;;;;;;;5068519;28;20074;-68
2023/12/27 08:31:54;;;;;;;141.95;136.88;;;;;;;;;;5080449;28;20487;-69
2023/12/27 08:34:20;;;;;;;119.05;114.70;;;;;;;;;;5079585;28;20037;-69
2023/12/27 08:36:48;;;;;;;142.80;137.32;;;;;;;;;;5067070;28;20045;-70
2023/12/27 08:39:15;;;;;;;153.07;147.75;;;;;;;;;;5080192;28;20053;-70
2023/12/27 08:41:43;;;;;;;143.00;138.27;;;;;;;;;;5076031;28;20048;-70
2023/12/27 08:44:09;;;;;;;144.88;140.05;;;;;;;;;;5081361;28;20483;-70
2023/12/27 08:46:36;;;;;;;140.65;135.30;;;;;;;;;;5075321;28;20060;-68
2023/12/27 08:49:02;;;;;;;137.27;132.38;;;;;;;;;;5069829;28;20090;-68
2023/12/27 08:51:29;;;;;;;140.15;135.23;;;;;;;;;;5071180;28;20052;-69
2023/12/27 08:53:55;;;;;;;134.68;129.68;;;;;;;;;;5077527;28;20044;-68
2023/12/27 08:56:22;;;;;;;160.52;155.18;;;;;;;;;;5078531;28;20044;-68
2023/12/27 08:58:50;;;;;;;175.13;168.90;;;;;;;;;;5066235;28;20099;-69
2023/12/27 09:01:17;;;;;;;165.65;160.07;;;;;;;;;;5070368;28;20495;-69
2023/12/27 09:03:43;;;;;;;173.13;167.10;;;;;;;;;;5063180;28;20040;-70
2023/12/27 09:06:10;;;;;;;155.48;150.05;;;;;;;;;;5070769;28;20048;-69
2023/12/27 09:08:36;;;;;;;167.80;162.00;;;;;;;;;;5069944;28;20071;-69
2023/12/27 09:11:03;;;;;;;169.95;164.13;;;;;;;;;;5070142;28;20563;-69
2023/12/27 09:13:30;;;;;;;186.55;180.27;;;;;;;;;;5055388;28;20053;-68
2023/12/27 09:15:58;;;;;;;204.50;198.15;;;;;;;;;;5066921;28;20044;-69
2023/12/27 09:18:25;;;;;;;209.80;203.30;;;;;;;;;;5065420;28;20052;-69
2023/12/27 09:20:51;;;;;;;202.00;195.48;;;;;;;;;;5079565;28;20052;-69
2023/12/27 09:23:18;;;;;;;202.18;195.30;;;;;;;;;;5081351;28;20060;-69
2023/12/27 09:25:45;;;;;;;203.55;196.65;;;;;;;;;;5059861;28;20062;-69
2023/12/27 09:28:11;;;;;;;186.98;181.20;;;;;;;;;;5073293;28;20186;-69
2023/12/27 09:30:40;;;;;;;208.68;201.52;;;;;;;;;;5074009;28;20044;-68
2023/12/27 09:33:08;;;;;;;202.15;195.63;;;;;;;;;;5062490;28;20061;-68
2023/12/27 09:35:35;;;;;;;203.45;196.68;;;;;;;;;;5060999;28;20044;-69
2023/12/27 09:38:02;;;;;;;151.50;145.82;;;;;;;;;;5071080;28;20454;-68
2023/12/27 09:40:29;;;;;;;204.43;197.95;;;;;;;;;;5080776;28;20047;-69
2023/12/27 09:42:56;;;;;;;222.52;215.27;;;;;;;;;;5076058;28;20569;-68
2023/12/27 09:45:23;;;;;;;199.48;193.15;;;;;;;;;;5082764;28;20136;-68
2023/12/27 09:47:53;;;;;;;205.00;198.23;;;;;;;;;;5073519;28;20044;-69
2023/12/27 09:50:21;;;;;;;209.70;202.52;;;;;;;;;;5072686;28;20044;-71
2023/12/27 09:52:48;;;;;;;211.85;204.50;;;;;;;;;;5071478;28;20076;-73
2023/12/27 09:55:15;;;;;;;218.45;210.88;;;;;;;;;;5066848;28;20053;-70
2023/12/27 09:57:42;;;;;;;213.25;205.23;;;;;;;;;;5073654;28;20048;-70
2023/12/27 10:00:12;;;;;;;217.60;210.02;;;;;;;;;;5072851;28;20514;-70
2023/12/27 10:02:41;;;;;;;201.60;194.60;;;;;;;;;;5073392;28;20109;-70
2023/12/27 10:05:13;;;;;;;211.70;204.55;;;;;;;;;;5070649;28;20139;-71
2023/12/27 10:07:41;;;;;;;205.50;198.27;;;;;;;;;;5073121;28;20041;-70
2023/12/27 10:10:08;;;;;;;221.98;214.32;;;;;;;;;;5065080;28;20122;-71
2023/12/27 10:12:35;;;;;;;205.02;198.85;;;;;;;;;;5065600;28;20040;-71
2023/12/27 10:15:01;;;;;;;210.82;204.48;;;;;;;;;;5072640;28;20088;-70
2023/12/27 10:17:28;;;;;;;210.27;203.98;;;;;;;;;;5073342;28;20123;-70
2023/12/27 10:19:54;;;;;;;229.02;222.45;;;;;;;;;;5072727;28;20050;-71
2023/12/27 10:22:21;;;;;;;218.27;211.50;;;;;;;;;;5073279;28;20056;-71
2023/12/27 10:24:49;;;;;;;234.32;227.50;;;;;;;;;;5069614;28;20045;-71
2023/12/27 10:27:15;;;;;;;228.32;221.43;;;;;;;;;;5072494;28;20094;-71
2023/12/27 10:29:46;;;;;;;226.15;219.07;;;;;;;;;;5073229;28;20097;-70
2023/12/27 10:32:12;;;;;;;214.48;207.60;;;;;;;;;;5062412;28;20055;-70
2023/12/27 10:34:39;;;;;;;208.07;201.35;;;;;;;;;;5072978;28;20122;-71
2023/12/27 10:37:11;;;;;;;207.25;201.05;;;;;;;;;;5066457;28;20041;-70
2023/12/27 10:39:38;;;;;;;220.32;213.77;;;;;;;;;;5069353;28;20043;-71
2023/12/27 10:42:07;;;;;;;222.55;215.50;;;;;;;;;;5070963;28;20094;-71
2023/12/27 10:44:34;;;;;;;211.63;205.35;;;;;;;;;;5063968;28;20048;-71
2023/12/27 10:47:03;;;;;;;229.50;223.20;;;;;;;;;;5071860;28;20044;-71
2023/12/27 10:49:31;;;;;;;215.32;208.75;;;;;;;;;;5072923;28;20052;-71
2023/12/27 10:51:58;;;;;;;212.60;206.05;;;;;;;;;;5072294;28;20087;-71
2023/12/27 10:54:25;;;;;;;216.70;210.05;;;;;;;;;;5072175;28;20395;-71
2023/12/27 10:56:54;;;;;;;206.95;200.20;;;;;;;;;;5072575;28;20048;-71
2023/12/27 10:59:22;;;;;;;207.73;201.52;;;;;;;;;;5072546;28;20048;-72
2023/12/27 11:01:49;;;;;;;191.25;185.30;;;;;;;;;;5072393;28;20060;-71
2023/12/27 11:04:16;;;;;;;228.38;221.80;;;;;;;;;;5069939;28;20075;-71
2023/12/27 11:06:43;;;;;;;216.18;209.90;;;;;;;;;;5065187;28;20098;-70
2023/12/27 11:09:10;;;;;;;209.75;203.18;;;;;;;;;;5069849;28;20113;-72
2023/12/27 11:11:38;;;;;;;228.45;221.82;;;;;;;;;;5075968;28;20052;-72
2023/12/27 11:14:05;;;;;;;221.80;215.18;;;;;;;;;;5074977;28;20044;-71
2023/12/27 11:16:34;;;;;;;227.50;221.05;;;;;;;;;;5067988;28;20048;-71
2023/12/27 11:19:03;;;;;;;167.55;162.38;;;;;;;;;;5071511;28;20455;-71
2023/12/27 11:21:29;;;;;;;246.32;239.50;;;;;;;;;;5071452;28;20186;-71
2023/12/27 11:23:56;;;;;;;247.43;240.40;;;;;;;;;;5065975;28;20130;-71
2023/12/27 11:26:22;;;;;;;237.88;231.25;;;;;;;;;;5068830;28;20052;-71
2023/12/27 11:28:50;;;;;;;242.65;235.57;;;;;;;;;;5071016;28;20044;-73
2023/12/27 11:31:17;;;;;;;264.00;256.65;;;;;;;;;;5072003;28;20056;-71
2023/12/27 11:33:45;;;;;;;256.80;249.65;;;;;;;;;;5068827;28;20075;-70
2023/12/27 11:36:11;;;;;;;232.52;225.85;;;;;;;;;;5070128;28;20056;-71
2023/12/27 11:38:39;;;;;;;235.60;228.80;;;;;;;;;;5071579;28;20082;-72
2023/12/27 11:41:06;;;;;;;245.88;238.77;;;;;;;;;;5068340;28;20135;-71
2023/12/27 11:43:47;;;;;;;264.20;256.80;;;;;;;;;;5062666;28;20041;-71
2023/12/27 11:46:14;;;;;;;276.65;269.05;;;;;;;;;;5070919;28;20102;-70
2023/12/27 11:48:40;;;;;;;244.50;237.73;;;;;;;;;;5066682;28;20041;-71
2023/12/27 11:51:22;;;;;;;242.57;235.38;;;;;;;;;;5071112;28;20095;-71
2023/12/27 11:53:51;;;;;;;246.60;239.55;;;;;;;;;;5070766;28;20560;-70
2023/12/27 11:56:17;;;;;;;256.27;248.95;;;;;;;;;;5071703;28;20044;-71
2023/12/27 11:58:44;;;;;;;254.65;247.40;;;;;;;;;;5067448;28;20045;-71
2023/12/27 12:01:25;;;;;;;261.00;253.73;;;;;;;;;;5060844;28;20048;-71
2023/12/27 12:03:56;;;;;;;265.80;258.38;;;;;;;;;;5064646;28;20048;-71
2023/12/27 12:06:34;;;;;;;269.85;262.08;;;;;;;;;;5071141;28;20549;-71
2023/12/27 12:09:02;;;;;;;268.17;260.77;;;;;;;;;;5070374;28;20048;-71
2023/12/27 12:11:29;;;;;;;258.02;250.93;;;;;;;;;;5069002;28;20049;-70
2023/12/27 12:13:55;;;;;;;269.35;261.73;;;;;;;;;;5055454;28;20400;-70
2023/12/27 12:16:23;;;;;;;266.98;259.70;;;;;;;;;;5070090;28;20555;-71
2023/12/27 12:18:49;;;;;;;283.33;275.67;;;;;;;;;;5068996;28;20124;-70
2023/12/27 12:21:16;;;;;;;275.20;267.52;;;;;;;;;;5070907;28;20052;-70
2023/12/27 12:23:46;;;;;;;277.42;269.77;;;;;;;;;;5070641;28;20094;-70
2023/12/27 12:26:14;;;;;;;279.63;271.83;;;;;;;;;;5060443;28;21459;-70
2023/12/27 12:28:41;;;;;;;270.55;263.15;;;;;;;;;;5070939;28;20045;-70
2023/12/27 12:31:07;;;;;;;226.30;219.80;;;;;;;;;;5070891;28;20497;-69
2023/12/27 12:33:34;;;;;;;266.35;258.75;;;;;;;;;;5070995;28;20110;-70
2023/12/27 12:36:00;;;;;;;292.23;284.35;;;;;;;;;;5070796;28;20041;-70
2023/12/27 12:38:28;;;;;;;289.48;281.58;;;;;;;;;;5071306;28;20091;-70
2023/12/27 12:40:54;;;;;;;308.40;299.42;;;;;;;;;;5069371;28;20055;-71
2023/12/27 12:43:22;;;;;;;286.33;278.73;;;;;;;;;;5071044;28;20052;-71
2023/12/27 12:45:49;;;;;;;299.08;290.88;;;;;;;;;;5070845;28;20102;-70
2023/12/27 12:48:16;;;;;;;281.48;273.92;;;;;;;;;;5074017;28;20091;-70
2023/12/27 12:50:43;;;;;;;305.88;297.70;;;;;;;;;;5074981;28;20388;-70
2023/12/27 12:53:16;;;;;;;303.25;294.92;;;;;;;;;;5075107;28;20114;-71
2023/12/27 12:55:44;;;;;;;298.17;289.52;;;;;;;;;;5074957;28;20049;-71
2023/12/27 12:58:11;;;;;;;291.65;283.73;;;;;;;;;;5073566;28;20044;-71
2023/12/27 13:00:38;;;;;;;293.52;285.60;;;;;;;;;;5074436;28;20037;-71
2023/12/27 13:03:06;;;;;;;305.25;296.95;;;;;;;;;;5074722;28;20055;-71
2023/12/27 13:05:32;;;;;;;;;;;;;;;;;;5075231;28;20044;-70
2023/12/27 13:07:58;;;;;;;298.65;290.38;;;;;;;;;;5074444;28;20069;-70
2023/12/27 13:10:25;;;;;;;291.95;284.00;;;;;;;;;;5074603;28;20048;-71
2023/12/27 13:12:51;;;;;;;275.88;268.63;;;;;;;;;;5071974;28;20126;-70
2023/12/27 13:15:19;;;;;;;250.32;243.32;;;;;;;;;;5062916;28;20579;-70
2023/12/27 13:17:48;;;;;;;306.90;298.65;;;;;;;;;;5069553;28;20060;-71
2023/12/27 13:20:15;;;;;;;294.60;286.45;;;;;;;;;;5060139;28;20072;-66
2023/12/27 13:22:42;;;;;;;281.33;273.67;;;;;;;;;;5066316;28;20036;-70
2023/12/27 13:25:09;;;;;;;315.50;307.05;;;;;;;;;;5069335;28;20076;-69
2023/12/27 13:27:36;;;;;;;300.75;292.85;;;;;;;;;;5070584;28;20051;-70
2023/12/27 13:30:03;;;;;;;296.00;288.17;;;;;;;;;;5067910;28;20052;-70
2023/12/27 13:32:29;;;;;;;310.25;302.05;;;;;;;;;;5073184;28;20056;-70
2023/12/27 13:34:57;;;;;;;296.40;288.55;;;;;;;;;;5060195;28;20049;-71
2023/12/27 13:37:24;;;;;;;246.35;239.57;;;;;;;;;;5067315;28;20453;-71
2023/12/27 13:39:50;;;;;;;298.65;290.63;;;;;;;;;;5061572;28;20040;-71
2023/12/27 13:42:16;;;;;;;237.13;230.45;;;;;;;;;;5071681;28;20395;-71
2023/12/27 13:44:43;;;;;;;315.73;307.13;;;;;;;;;;5080228;28;20052;-70
2023/12/27 13:47:10;;;;;;;287.55;279.58;;;;;;;;;;5081127;28;20047;-70
2023/12/27 13:49:35;;;;;;;224.95;218.63;;;;;;;;;;5079682;28;20396;-70
2023/12/27 13:52:03;;;;;;;301.95;293.92;;;;;;;;;;5072432;28;20059;-70
2023/12/27 13:54:30;;;;;;;295.02;287.27;;;;;;;;;;5082581;28;20048;-70
2023/12/27 13:56:56;;;;;;;237.73;230.95;;;;;;;;;;5083723;28;20468;-71
2023/12/27 13:59:23;;;;;;;294.33;286.50;;;;;;;;;;5089326;28;20047;-70
2023/12/27 14:01:49;;;;;;;307.73;299.65;;;;;;;;;;5093766;28;20101;-70
2023/12/27 14:04:16;;;;;;;303.58;295.60;;;;;;;;;;5093748;28;20052;-71